sensor_id;sensor_type;location;lat;lon;timestamp;P1;durP1;ratioP1;P2;durP2;ratioP2
14754;SDS011;7469;50.906;6.952;2023-08-31T00:00:03;5.80;;;2.57;;
14754;SDS011;7469;50.906;6.952;2023-08-31T00:02:32;5.10;;;2.70;;
14754;SDS011;7469;50.906;6.952;2023-08-31T00:05:00;9.67;;;3.40;;
14754;SDS011;7469;50.906;6.952;2023-08-31T00:07:28;8.83;;;3.00;;
14754;SDS011;7469;50.906;6.952;2023-08-31T00:09:56;7.70;;;2.90;;
14754;SDS011;7469;50.906;6.952;2023-08-31T00:12:26;6.90;;;2.63;;
14754;SDS011;7469;50.906;6.952;2023-08-31T00:14:55;6.43;;;2.80;;
14754;SDS011;7469;50.906;6.952;2023-08-31T00:17:23;8.63;;;3.20;;
14754;SDS011;7469;50.906;6.952;2023-08-31T00:19:51;7.80;;;2.77;;
14754;SDS011;7469;50.906;6.952;2023-08-31T00:22:19;5.07;;;2.77;;
14754;SDS011;7469;50.906;6.952;2023-08-31T00:24:46;4.47;;;2.60;;
14754;SDS011;7469;50.906;6.952;2023-08-31T00:27:14;5.30;;;2.90;;
14754;SDS011;7469;50.906;6.952;2023-08-31T00:29:45;9.90;;;2.80;;
14754;SDS011;7469;50.906;6.952;2023-08-31T00:32:15;9.30;;;2.70;;
14754;SDS011;7469;50.906;6.952;2023-08-31T00:34:44;6.43;;;3.00;;
14754;SDS011;7469;50.906;6.952;2023-08-31T00:37:12;5.53;;;2.83;;
14754;SDS011;7469;50.906;6.952;2023-08-31T00:39:40;7.83;;;2.50;;
14754;SDS011;7469;50.906;6.952;2023-08-31T00:42:09;5.63;;;2.97;;
14754;SDS011;7469;50.906;6.952;2023-08-31T00:44:37;4.83;;;3.13;;
14754;SDS011;7469;50.906;6.952;2023-08-31T00:47:07;8.10;;;3.03;;
14754;SDS011;7469;50.906;6.952;2023-08-31T00:49:35;8.50;;;3.23;;
14754;SDS011;7469;50.906;6.952;2023-08-31T00:52:03;4.87;;;3.00;;
14754;SDS011;7469;50.906;6.952;2023-08-31T00:54:31;7.17;;;3.23;;
14754;SDS011;7469;50.906;6.952;2023-08-31T00:56:59;6.90;;;3.03;;
14754;SDS011;7469;50.906;6.952;2023-08-31T00:59:30;8.20;;;3.10;;
14754;SDS011;7469;50.906;6.952;2023-08-31T01:01:59;8.87;;;3.23;;
14754;SDS011;7469;50.906;6.952;2023-08-31T01:04:38;6.20;;;3.17;;
14754;SDS011;7469;50.906;6.952;2023-08-31T01:07:14;6.53;;;3.17;;
14754;SDS011;7469;50.906;6.952;2023-08-31T01:09:50;7.43;;;2.87;;
14754;SDS011;7469;50.906;6.952;2023-08-31T01:12:28;7.00;;;3.60;;
14754;SDS011;7469;50.906;6.952;2023-08-31T01:15:03;4.03;;;2.60;;
14754;SDS011;7469;50.906;6.952;2023-08-31T01:17:35;5.57;;;2.93;;
14754;SDS011;7469;50.906;6.952;2023-08-31T01:20:10;10.93;;;3.20;;
14754;SDS011;7469;50.906;6.952;2023-08-31T01:22:43;7.50;;;3.30;;
14754;SDS011;7469;50.906;6.952;2023-08-31T01:25:16;6.17;;;2.90;;
14754;SDS011;7469;50.906;6.952;2023-08-31T01:27:44;6.80;;;2.93;;
14754;SDS011;7469;50.906;6.952;2023-08-31T01:30:12;4.67;;;2.80;;
14754;SDS011;7469;50.906;6.952;2023-08-31T01:32:42;6.83;;;2.70;;
14754;SDS011;7469;50.906;6.952;2023-08-31T01:35:12;6.50;;;2.70;;
14754;SDS011;7469;50.906;6.952;2023-08-31T01:37:44;6.93;;;2.93;;
14754;SDS011;7469;50.906;6.952;2023-08-31T01:40:17;9.47;;;3.60;;
14754;SDS011;7469;50.906;6.952;2023-08-31T01:42:49;3.77;;;2.60;;
14754;SDS011;7469;50.906;6.952;2023-08-31T01:45:19;8.97;;;2.93;;
14754;SDS011;7469;50.906;6.952;2023-08-31T01:47:48;5.90;;;2.70;;
14754;SDS011;7469;50.906;6.952;2023-08-31T01:50:17;7.57;;;3.03;;
14754;SDS011;7469;50.906;6.952;2023-08-31T01:52:45;7.17;;;2.70;;
14754;SDS011;7469;50.906;6.952;2023-08-31T01:55:12;4.33;;;2.77;;
14754;SDS011;7469;50.906;6.952;2023-08-31T01:57:43;6.23;;;3.00;;
14754;SDS011;7469;50.906;6.952;2023-08-31T02:00:11;5.30;;;3.00;;
14754;SDS011;7469;50.906;6.952;2023-08-31T02:02:41;3.60;;;3.03;;
14754;SDS011;7469;50.906;6.952;2023-08-31T02:05:09;8.07;;;3.20;;
14754;SDS011;7469;50.906;6.952;2023-08-31T02:07:37;6.80;;;3.20;;
14754;SDS011;7469;50.906;6.952;2023-08-31T02:10:06;6.83;;;3.27;;
14754;SDS011;7469;50.906;6.952;2023-08-31T02:12:35;7.63;;;2.90;;
14754;SDS011;7469;50.906;6.952;2023-08-31T02:15:05;8.63;;;3.37;;
14754;SDS011;7469;50.906;6.952;2023-08-31T02:17:34;6.37;;;3.17;;
14754;SDS011;7469;50.906;6.952;2023-08-31T02:20:02;5.43;;;2.53;;
14754;SDS011;7469;50.906;6.952;2023-08-31T02:22:33;5.10;;;2.60;;
14754;SDS011;7469;50.906;6.952;2023-08-31T02:25:01;5.67;;;2.60;;
14754;SDS011;7469;50.906;6.952;2023-08-31T02:27:30;5.27;;;2.53;;
14754;SDS011;7469;50.906;6.952;2023-08-31T02:29:58;6.13;;;2.57;;
14754;SDS011;7469;50.906;6.952;2023-08-31T02:32:28;3.13;;;2.30;;
14754;SDS011;7469;50.906;6.952;2023-08-31T02:34:56;4.97;;;2.60;;
14754;SDS011;7469;50.906;6.952;2023-08-31T02:37:24;5.13;;;2.50;;
14754;SDS011;7469;50.906;6.952;2023-08-31T02:39:52;5.37;;;2.63;;
14754;SDS011;7469;50.906;6.952;2023-08-31T02:42:20;4.23;;;2.60;;
14754;SDS011;7469;50.906;6.952;2023-08-31T02:44:51;3.73;;;2.60;;
14754;SDS011;7469;50.906;6.952;2023-08-31T02:47:20;3.30;;;2.53;;
14754;SDS011;7469;50.906;6.952;2023-08-31T02:49:49;4.43;;;2.53;;
14754;SDS011;7469;50.906;6.952;2023-08-31T02:52:17;4.37;;;2.60;;
14754;SDS011;7469;50.906;6.952;2023-08-31T02:54:45;3.47;;;2.53;;
14754;SDS011;7469;50.906;6.952;2023-08-31T02:57:13;5.33;;;2.13;;
14754;SDS011;7469;50.906;6.952;2023-08-31T02:59:41;4.03;;;2.20;;
14754;SDS011;7469;50.906;6.952;2023-08-31T03:02:09;3.67;;;2.53;;
14754;SDS011;7469;50.906;6.952;2023-08-31T03:04:37;4.97;;;2.40;;
14754;SDS011;7469;50.906;6.952;2023-08-31T03:07:07;4.93;;;2.40;;
14754;SDS011;7469;50.906;6.952;2023-08-31T03:09:35;6.23;;;3.07;;
14754;SDS011;7469;50.906;6.952;2023-08-31T03:12:05;6.10;;;2.83;;
14754;SDS011;7469;50.906;6.952;2023-08-31T03:14:33;5.13;;;2.60;;
14754;SDS011;7469;50.906;6.952;2023-08-31T03:17:01;8.97;;;2.90;;
14754;SDS011;7469;50.906;6.952;2023-08-31T03:19:29;5.43;;;2.90;;
14754;SDS011;7469;50.906;6.952;2023-08-31T03:21:57;4.47;;;2.50;;
14754;SDS011;7469;50.906;6.952;2023-08-31T03:24:26;4.80;;;2.70;;
14754;SDS011;7469;50.906;6.952;2023-08-31T03:26:54;4.00;;;2.93;;
14754;SDS011;7469;50.906;6.952;2023-08-31T03:29:22;4.10;;;2.87;;
14754;SDS011;7469;50.906;6.952;2023-08-31T03:31:50;5.83;;;2.70;;
14754;SDS011;7469;50.906;6.952;2023-08-31T03:34:18;5.67;;;2.60;;
14754;SDS011;7469;50.906;6.952;2023-08-31T03:36:46;4.33;;;2.70;;
14754;SDS011;7469;50.906;6.952;2023-08-31T03:39:14;5.17;;;2.67;;
14754;SDS011;7469;50.906;6.952;2023-08-31T03:41:43;4.73;;;2.77;;
14754;SDS011;7469;50.906;6.952;2023-08-31T03:44:11;5.57;;;2.83;;
14754;SDS011;7469;50.906;6.952;2023-08-31T03:46:39;3.90;;;2.80;;
14754;SDS011;7469;50.906;6.952;2023-08-31T03:49:07;3.93;;;2.67;;
14754;SDS011;7469;50.906;6.952;2023-08-31T03:51:35;3.73;;;2.53;;
14754;SDS011;7469;50.906;6.952;2023-08-31T03:54:03;4.73;;;2.47;;
14754;SDS011;7469;50.906;6.952;2023-08-31T03:56:31;5.63;;;2.90;;
14754;SDS011;7469;50.906;6.952;2023-08-31T03:59:01;4.00;;;2.60;;
14754;SDS011;7469;50.906;6.952;2023-08-31T04:01:30;3.40;;;2.70;;
14754;SDS011;7469;50.906;6.952;2023-08-31T04:03:58;4.60;;;2.57;;
14754;SDS011;7469;50.906;6.952;2023-08-31T04:06:26;2.50;;;2.30;;
14754;SDS011;7469;50.906;6.952;2023-08-31T04:08:55;3.77;;;2.63;;
14754;SDS011;7469;50.906;6.952;2023-08-31T04:11:24;5.23;;;2.97;;
14754;SDS011;7469;50.906;6.952;2023-08-31T04:13:52;4.13;;;2.20;;
14754;SDS011;7469;50.906;6.952;2023-08-31T04:16:21;4.60;;;2.40;;
14754;SDS011;7469;50.906;6.952;2023-08-31T04:18:49;5.37;;;2.57;;
14754;SDS011;7469;50.906;6.952;2023-08-31T04:21:18;4.17;;;2.50;;
14754;SDS011;7469;50.906;6.952;2023-08-31T04:23:46;4.70;;;2.57;;
14754;SDS011;7469;50.906;6.952;2023-08-31T04:26:14;4.73;;;2.30;;
14754;SDS011;7469;50.906;6.952;2023-08-31T04:28:43;4.80;;;3.10;;
14754;SDS011;7469;50.906;6.952;2023-08-31T04:31:11;4.47;;;2.50;;
14754;SDS011;7469;50.906;6.952;2023-08-31T04:33:41;3.10;;;2.27;;
14754;SDS011;7469;50.906;6.952;2023-08-31T04:36:09;2.90;;;2.50;;
14754;SDS011;7469;50.906;6.952;2023-08-31T04:38:37;5.70;;;3.00;;
14754;SDS011;7469;50.906;6.952;2023-08-31T04:41:05;4.23;;;2.50;;
14754;SDS011;7469;50.906;6.952;2023-08-31T04:43:33;6.13;;;2.73;;
14754;SDS011;7469;50.906;6.952;2023-08-31T04:46:01;2.97;;;2.43;;
14754;SDS011;7469;50.906;6.952;2023-08-31T04:48:30;7.70;;;2.37;;
14754;SDS011;7469;50.906;6.952;2023-08-31T04:50:59;6.73;;;2.77;;
14754;SDS011;7469;50.906;6.952;2023-08-31T04:53:27;4.10;;;2.67;;
14754;SDS011;7469;50.906;6.952;2023-08-31T04:55:56;3.77;;;2.60;;
14754;SDS011;7469;50.906;6.952;2023-08-31T04:58:24;4.37;;;2.90;;
14754;SDS011;7469;50.906;6.952;2023-08-31T05:00:52;3.47;;;3.00;;
14754;SDS011;7469;50.906;6.952;2023-08-31T05:03:20;4.13;;;2.93;;
14754;SDS011;7469;50.906;6.952;2023-08-31T05:05:48;4.07;;;2.90;;
14754;SDS011;7469;50.906;6.952;2023-08-31T05:08:17;7.70;;;3.60;;
14754;SDS011;7469;50.906;6.952;2023-08-31T05:10:45;5.13;;;3.27;;
14754;SDS011;7469;50.906;6.952;2023-08-31T05:13:13;4.93;;;3.60;;
14754;SDS011;7469;50.906;6.952;2023-08-31T05:15:41;5.67;;;3.50;;
14754;SDS011;7469;50.906;6.952;2023-08-31T05:18:09;4.77;;;3.47;;
14754;SDS011;7469;50.906;6.952;2023-08-31T05:20:37;7.33;;;3.50;;
14754;SDS011;7469;50.906;6.952;2023-08-31T05:23:05;8.50;;;3.27;;
14754;SDS011;7469;50.906;6.952;2023-08-31T05:25:34;9.33;;;3.57;;
14754;SDS011;7469;50.906;6.952;2023-08-31T05:28:02;3.70;;;3.23;;
14754;SDS011;7469;50.906;6.952;2023-08-31T05:30:30;5.23;;;3.57;;
14754;SDS011;7469;50.906;6.952;2023-08-31T05:33:00;4.63;;;3.30;;
14754;SDS011;7469;50.906;6.952;2023-08-31T05:35:28;4.50;;;3.30;;
14754;SDS011;7469;50.906;6.952;2023-08-31T05:37:56;4.60;;;3.40;;
14754;SDS011;7469;50.906;6.952;2023-08-31T05:40:24;7.43;;;3.80;;
14754;SDS011;7469;50.906;6.952;2023-08-31T05:42:53;8.50;;;3.73;;
14754;SDS011;7469;50.906;6.952;2023-08-31T05:45:22;7.17;;;3.70;;
14754;SDS011;7469;50.906;6.952;2023-08-31T05:47:50;7.20;;;3.77;;
14754;SDS011;7469;50.906;6.952;2023-08-31T05:50:18;7.77;;;3.40;;
14754;SDS011;7469;50.906;6.952;2023-08-31T05:52:45;4.07;;;3.57;;
14754;SDS011;7469;50.906;6.952;2023-08-31T05:55:13;5.00;;;3.47;;
14754;SDS011;7469;50.906;6.952;2023-08-31T05:57:41;6.13;;;3.70;;
14754;SDS011;7469;50.906;6.952;2023-08-31T06:00:11;5.80;;;3.50;;
14754;SDS011;7469;50.906;6.952;2023-08-31T06:02:39;9.20;;;3.77;;
14754;SDS011;7469;50.906;6.952;2023-08-31T06:05:08;6.57;;;3.77;;
14754;SDS011;7469;50.906;6.952;2023-08-31T06:07:38;7.47;;;3.80;;
14754;SDS011;7469;50.906;6.952;2023-08-31T06:10:07;9.37;;;3.93;;
14754;SDS011;7469;50.906;6.952;2023-08-31T06:12:35;6.03;;;3.60;;
14754;SDS011;7469;50.906;6.952;2023-08-31T06:15:03;7.33;;;3.50;;
14754;SDS011;7469;50.906;6.952;2023-08-31T06:17:33;5.33;;;3.43;;
14754;SDS011;7469;50.906;6.952;2023-08-31T06:20:01;4.70;;;3.40;;
14754;SDS011;7469;50.906;6.952;2023-08-31T06:22:31;8.20;;;3.67;;
14754;SDS011;7469;50.906;6.952;2023-08-31T06:24:59;5.83;;;3.33;;
14754;SDS011;7469;50.906;6.952;2023-08-31T06:27:29;9.80;;;3.13;;
14754;SDS011;7469;50.906;6.952;2023-08-31T06:29:57;12.13;;;3.63;;
14754;SDS011;7469;50.906;6.952;2023-08-31T06:32:24;11.47;;;3.10;;
14754;SDS011;7469;50.906;6.952;2023-08-31T06:34:55;6.77;;;3.50;;
14754;SDS011;7469;50.906;6.952;2023-08-31T06:37:23;7.30;;;3.47;;
14754;SDS011;7469;50.906;6.952;2023-08-31T06:39:51;8.60;;;3.30;;
14754;SDS011;7469;50.906;6.952;2023-08-31T06:42:19;9.43;;;3.47;;
14754;SDS011;7469;50.906;6.952;2023-08-31T06:44:46;6.20;;;2.77;;
14754;SDS011;7469;50.906;6.952;2023-08-31T06:47:14;7.40;;;2.90;;
14754;SDS011;7469;50.906;6.952;2023-08-31T06:49:43;8.60;;;3.03;;
14754;SDS011;7469;50.906;6.952;2023-08-31T06:52:13;5.43;;;2.57;;
14754;SDS011;7469;50.906;6.952;2023-08-31T06:54:57;5.87;;;2.50;;
14754;SDS011;7469;50.906;6.952;2023-08-31T06:57:26;5.17;;;2.23;;
14754;SDS011;7469;50.906;6.952;2023-08-31T06:59:54;4.17;;;2.20;;
14754;SDS011;7469;50.906;6.952;2023-08-31T07:02:22;6.40;;;2.20;;
14754;SDS011;7469;50.906;6.952;2023-08-31T07:04:53;6.57;;;2.63;;
14754;SDS011;7469;50.906;6.952;2023-08-31T07:07:23;7.07;;;2.53;;
14754;SDS011;7469;50.906;6.952;2023-08-31T07:09:52;7.30;;;2.33;;
14754;SDS011;7469;50.906;6.952;2023-08-31T07:12:20;8.10;;;2.67;;
14754;SDS011;7469;50.906;6.952;2023-08-31T07:14:48;6.30;;;2.27;;
14754;SDS011;7469;50.906;6.952;2023-08-31T07:17:17;4.80;;;2.40;;
14754;SDS011;7469;50.906;6.952;2023-08-31T07:19:46;4.53;;;2.17;;
14754;SDS011;7469;50.906;6.952;2023-08-31T07:22:14;5.17;;;2.07;;
14754;SDS011;7469;50.906;6.952;2023-08-31T07:24:43;11.40;;;2.80;;
14754;SDS011;7469;50.906;6.952;2023-08-31T07:27:11;12.50;;;2.93;;
14754;SDS011;7469;50.906;6.952;2023-08-31T07:29:39;14.33;;;3.67;;
14754;SDS011;7469;50.906;6.952;2023-08-31T07:32:07;6.47;;;2.23;;
14754;SDS011;7469;50.906;6.952;2023-08-31T07:34:35;4.93;;;2.40;;
14754;SDS011;7469;50.906;6.952;2023-08-31T07:37:03;7.63;;;2.20;;
14754;SDS011;7469;50.906;6.952;2023-08-31T07:39:32;3.50;;;2.47;;
14754;SDS011;7469;50.906;6.952;2023-08-31T07:42:01;6.57;;;2.10;;
14754;SDS011;7469;50.906;6.952;2023-08-31T07:44:30;4.87;;;2.33;;
14754;SDS011;7469;50.906;6.952;2023-08-31T07:46:58;4.37;;;1.80;;
14754;SDS011;7469;50.906;6.952;2023-08-31T07:49:26;8.00;;;1.93;;
14754;SDS011;7469;50.906;6.952;2023-08-31T07:51:54;6.60;;;2.10;;
14754;SDS011;7469;50.906;6.952;2023-08-31T07:54:22;4.53;;;1.87;;
14754;SDS011;7469;50.906;6.952;2023-08-31T07:56:50;5.07;;;2.17;;
14754;SDS011;7469;50.906;6.952;2023-08-31T07:59:19;3.77;;;1.77;;
14754;SDS011;7469;50.906;6.952;2023-08-31T08:01:47;5.40;;;2.00;;
14754;SDS011;7469;50.906;6.952;2023-08-31T08:04:16;6.87;;;2.27;;
14754;SDS011;7469;50.906;6.952;2023-08-31T08:06:45;6.27;;;2.17;;
14754;SDS011;7469;50.906;6.952;2023-08-31T08:09:13;4.90;;;1.90;;
14754;SDS011;7469;50.906;6.952;2023-08-31T08:11:43;8.10;;;1.90;;
14754;SDS011;7469;50.906;6.952;2023-08-31T08:14:11;5.77;;;2.07;;
14754;SDS011;7469;50.906;6.952;2023-08-31T08:16:41;6.20;;;1.90;;
14754;SDS011;7469;50.906;6.952;2023-08-31T08:19:09;5.77;;;2.43;;
14754;SDS011;7469;50.906;6.952;2023-08-31T08:21:37;2.90;;;1.87;;
14754;SDS011;7469;50.906;6.952;2023-08-31T08:24:05;10.20;;;2.20;;
14754;SDS011;7469;50.906;6.952;2023-08-31T08:26:33;5.73;;;1.80;;
14754;SDS011;7469;50.906;6.952;2023-08-31T08:29:01;4.93;;;1.97;;
14754;SDS011;7469;50.906;6.952;2023-08-31T08:31:29;6.67;;;2.00;;
14754;SDS011;7469;50.906;6.952;2023-08-31T08:33:58;6.70;;;1.50;;
14754;SDS011;7469;50.906;6.952;2023-08-31T08:36:26;6.03;;;2.00;;
14754;SDS011;7469;50.906;6.952;2023-08-31T08:38:54;6.33;;;1.87;;
14754;SDS011;7469;50.906;6.952;2023-08-31T08:41:23;5.40;;;2.17;;
14754;SDS011;7469;50.906;6.952;2023-08-31T08:43:51;2.70;;;1.50;;
14754;SDS011;7469;50.906;6.952;2023-08-31T08:46:20;7.83;;;1.63;;
14754;SDS011;7469;50.906;6.952;2023-08-31T08:48:49;3.93;;;1.80;;
14754;SDS011;7469;50.906;6.952;2023-08-31T08:51:18;3.77;;;1.77;;
14754;SDS011;7469;50.906;6.952;2023-08-31T08:53:47;5.33;;;1.83;;
14754;SDS011;7469;50.906;6.952;2023-08-31T08:56:17;6.27;;;2.00;;
14754;SDS011;7469;50.906;6.952;2023-08-31T08:58:45;5.07;;;1.67;;
14754;SDS011;7469;50.906;6.952;2023-08-31T09:01:13;3.37;;;1.77;;
14754;SDS011;7469;50.906;6.952;2023-08-31T09:03:44;3.30;;;1.83;;
14754;SDS011;7469;50.906;6.952;2023-08-31T09:06:12;2.77;;;1.63;;
14754;SDS011;7469;50.906;6.952;2023-08-31T09:08:41;3.17;;;1.70;;
14754;SDS011;7469;50.906;6.952;2023-08-31T09:11:09;5.73;;;1.47;;
14754;SDS011;7469;50.906;6.952;2023-08-31T09:13:48;3.17;;;1.70;;
14754;SDS011;7469;50.906;6.952;2023-08-31T09:16:23;4.97;;;1.80;;
14754;SDS011;7469;50.906;6.952;2023-08-31T09:18:52;3.80;;;1.53;;
14754;SDS011;7469;50.906;6.952;2023-08-31T09:21:21;2.83;;;1.50;;
14754;SDS011;7469;50.906;6.952;2023-08-31T09:23:56;3.90;;;1.30;;
14754;SDS011;7469;50.906;6.952;2023-08-31T09:26:24;5.73;;;1.50;;
14754;SDS011;7469;50.906;6.952;2023-08-31T09:28:53;7.13;;;1.70;;
14754;SDS011;7469;50.906;6.952;2023-08-31T09:31:21;4.40;;;2.10;;
14754;SDS011;7469;50.906;6.952;2023-08-31T09:33:57;4.47;;;1.77;;
14754;SDS011;7469;50.906;6.952;2023-08-31T09:36:25;4.67;;;1.63;;
14754;SDS011;7469;50.906;6.952;2023-08-31T09:38:58;7.30;;;1.63;;
14754;SDS011;7469;50.906;6.952;2023-08-31T09:41:26;19.87;;;3.17;;
14754;SDS011;7469;50.906;6.952;2023-08-31T09:43:54;4.27;;;1.70;;
14754;SDS011;7469;50.906;6.952;2023-08-31T09:46:22;2.97;;;1.63;;
14754;SDS011;7469;50.906;6.952;2023-08-31T09:48:50;4.87;;;1.63;;
14754;SDS011;7469;50.906;6.952;2023-08-31T09:51:21;5.03;;;1.90;;
14754;SDS011;7469;50.906;6.952;2023-08-31T09:53:52;3.17;;;1.47;;
14754;SDS011;7469;50.906;6.952;2023-08-31T09:56:26;4.13;;;1.50;;
14754;SDS011;7469;50.906;6.952;2023-08-31T09:58:58;4.80;;;1.90;;
14754;SDS011;7469;50.906;6.952;2023-08-31T10:01:27;3.40;;;1.43;;
14754;SDS011;7469;50.906;6.952;2023-08-31T10:03:55;4.67;;;1.30;;
14754;SDS011;7469;50.906;6.952;2023-08-31T10:06:24;5.57;;;1.40;;
14754;SDS011;7469;50.906;6.952;2023-08-31T10:08:53;2.73;;;1.27;;
14754;SDS011;7469;50.906;6.952;2023-08-31T10:11:21;4.53;;;1.47;;
14754;SDS011;7469;50.906;6.952;2023-08-31T10:13:55;3.33;;;1.57;;
14754;SDS011;7469;50.906;6.952;2023-08-31T10:16:25;4.10;;;1.50;;
14754;SDS011;7469;50.906;6.952;2023-08-31T10:18:54;2.37;;;1.40;;
14754;SDS011;7469;50.906;6.952;2023-08-31T10:21:22;3.13;;;1.30;;
14754;SDS011;7469;50.906;6.952;2023-08-31T10:23:51;3.30;;;1.13;;
14754;SDS011;7469;50.906;6.952;2023-08-31T10:26:25;4.10;;;1.53;;
14754;SDS011;7469;50.906;6.952;2023-08-31T10:28:55;3.00;;;1.47;;
14754;SDS011;7469;50.906;6.952;2023-08-31T10:31:28;2.23;;;1.20;;
14754;SDS011;7469;50.906;6.952;2023-08-31T10:33:57;3.53;;;1.23;;
14754;SDS011;7469;50.906;6.952;2023-08-31T10:36:36;2.90;;;1.40;;
14754;SDS011;7469;50.906;6.952;2023-08-31T10:39:06;4.63;;;1.37;;
14754;SDS011;7469;50.906;6.952;2023-08-31T10:41:39;2.67;;;1.40;;
14754;SDS011;7469;50.906;6.952;2023-08-31T10:46:52;3.13;;;1.60;;
14754;SDS011;7469;50.906;6.952;2023-08-31T10:49:20;2.20;;;1.50;;
14754;SDS011;7469;50.906;6.952;2023-08-31T10:51:49;6.27;;;1.67;;
14754;SDS011;7469;50.906;6.952;2023-08-31T10:54:21;4.70;;;1.53;;
14754;SDS011;7469;50.906;6.952;2023-08-31T10:56:51;2.60;;;1.50;;
14754;SDS011;7469;50.906;6.952;2023-08-31T10:59:21;4.83;;;1.70;;
14754;SDS011;7469;50.906;6.952;2023-08-31T11:01:52;4.27;;;1.73;;
14754;SDS011;7469;50.906;6.952;2023-08-31T11:04:24;4.27;;;1.83;;
14754;SDS011;7469;50.906;6.952;2023-08-31T11:07:12;4.07;;;1.77;;
14754;SDS011;7469;50.906;6.952;2023-08-31T11:09:41;3.97;;;1.90;;
14754;SDS011;7469;50.906;6.952;2023-08-31T11:12:10;4.80;;;1.73;;
14754;SDS011;7469;50.906;6.952;2023-08-31T11:14:40;4.83;;;2.03;;
14754;SDS011;7469;50.906;6.952;2023-08-31T11:17:10;3.87;;;2.00;;
14754;SDS011;7469;50.906;6.952;2023-08-31T11:19:38;4.40;;;2.23;;
14754;SDS011;7469;50.906;6.952;2023-08-31T11:22:06;5.17;;;1.93;;
14754;SDS011;7469;50.906;6.952;2023-08-31T11:24:36;4.63;;;2.03;;
14754;SDS011;7469;50.906;6.952;2023-08-31T11:27:06;5.43;;;2.13;;
14754;SDS011;7469;50.906;6.952;2023-08-31T11:29:36;2.70;;;1.60;;
14754;SDS011;7469;50.906;6.952;2023-08-31T11:32:05;5.60;;;2.23;;
14754;SDS011;7469;50.906;6.952;2023-08-31T11:34:34;5.87;;;1.90;;
14754;SDS011;7469;50.906;6.952;2023-08-31T11:37:03;4.00;;;2.10;;
14754;SDS011;7469;50.906;6.952;2023-08-31T11:39:31;6.57;;;2.07;;
14754;SDS011;7469;50.906;6.952;2023-08-31T11:41:59;6.17;;;1.83;;
14754;SDS011;7469;50.906;6.952;2023-08-31T11:44:27;3.50;;;1.63;;
14754;SDS011;7469;50.906;6.952;2023-08-31T11:46:56;4.63;;;1.80;;
14754;SDS011;7469;50.906;6.952;2023-08-31T11:49:24;3.43;;;1.80;;
14754;SDS011;7469;50.906;6.952;2023-08-31T11:51:55;5.97;;;1.93;;
14754;SDS011;7469;50.906;6.952;2023-08-31T11:54:24;3.70;;;2.00;;
14754;SDS011;7469;50.906;6.952;2023-08-31T11:56:52;4.23;;;1.70;;
14754;SDS011;7469;50.906;6.952;2023-08-31T11:59:21;5.50;;;2.37;;
14754;SDS011;7469;50.906;6.952;2023-08-31T12:01:49;10.00;;;1.90;;
14754;SDS011;7469;50.906;6.952;2023-08-31T12:04:19;7.53;;;1.87;;
14754;SDS011;7469;50.906;6.952;2023-08-31T12:06:50;4.50;;;2.03;;
14754;SDS011;7469;50.906;6.952;2023-08-31T12:09:21;3.57;;;1.97;;
14754;SDS011;7469;50.906;6.952;2023-08-31T12:11:49;6.80;;;1.77;;
14754;SDS011;7469;50.906;6.952;2023-08-31T12:14:19;2.97;;;1.83;;
14754;SDS011;7469;50.906;6.952;2023-08-31T12:16:47;3.63;;;1.63;;
14754;SDS011;7469;50.906;6.952;2023-08-31T12:19:16;5.07;;;1.87;;
14754;SDS011;7469;50.906;6.952;2023-08-31T12:21:46;4.30;;;1.90;;
14754;SDS011;7469;50.906;6.952;2023-08-31T12:24:14;7.47;;;2.20;;
14754;SDS011;7469;50.906;6.952;2023-08-31T12:26:44;5.53;;;2.47;;
14754;SDS011;7469;50.906;6.952;2023-08-31T12:29:12;4.80;;;2.10;;
14754;SDS011;7469;50.906;6.952;2023-08-31T12:31:40;5.80;;;2.17;;
14754;SDS011;7469;50.906;6.952;2023-08-31T12:34:09;5.83;;;2.23;;
14754;SDS011;7469;50.906;6.952;2023-08-31T12:36:37;3.10;;;2.00;;
14754;SDS011;7469;50.906;6.952;2023-08-31T12:39:07;4.47;;;2.70;;
14754;SDS011;7469;50.906;6.952;2023-08-31T12:41:36;6.50;;;2.57;;
14754;SDS011;7469;50.906;6.952;2023-08-31T12:44:05;5.53;;;2.03;;
14754;SDS011;7469;50.906;6.952;2023-08-31T12:46:34;4.70;;;1.70;;
14754;SDS011;7469;50.906;6.952;2023-08-31T12:49:02;2.67;;;1.70;;
14754;SDS011;7469;50.906;6.952;2023-08-31T12:51:30;4.60;;;1.57;;
14754;SDS011;7469;50.906;6.952;2023-08-31T12:53:58;3.23;;;1.87;;
14754;SDS011;7469;50.906;6.952;2023-08-31T12:56:26;4.43;;;1.90;;
14754;SDS011;7469;50.906;6.952;2023-08-31T12:58:54;3.43;;;1.73;;
14754;SDS011;7469;50.906;6.952;2023-08-31T13:01:23;2.63;;;1.70;;
14754;SDS011;7469;50.906;6.952;2023-08-31T13:03:52;3.23;;;1.67;;
14754;SDS011;7469;50.906;6.952;2023-08-31T13:06:20;4.03;;;2.03;;
14754;SDS011;7469;50.906;6.952;2023-08-31T13:08:50;4.47;;;1.70;;
14754;SDS011;7469;50.906;6.952;2023-08-31T13:11:18;3.07;;;1.67;;
14754;SDS011;7469;50.906;6.952;2023-08-31T13:13:49;5.07;;;1.77;;
14754;SDS011;7469;50.906;6.952;2023-08-31T13:16:18;4.67;;;1.97;;
14754;SDS011;7469;50.906;6.952;2023-08-31T13:18:52;2.73;;;1.77;;
14754;SDS011;7469;50.906;6.952;2023-08-31T13:21:20;5.37;;;1.73;;
14754;SDS011;7469;50.906;6.952;2023-08-31T13:23:50;4.97;;;1.83;;
14754;SDS011;7469;50.906;6.952;2023-08-31T13:26:18;3.53;;;1.60;;
14754;SDS011;7469;50.906;6.952;2023-08-31T13:28:46;4.37;;;1.70;;
14754;SDS011;7469;50.906;6.952;2023-08-31T13:31:13;4.90;;;1.73;;
14754;SDS011;7469;50.906;6.952;2023-08-31T13:33:42;8.73;;;1.90;;
14754;SDS011;7469;50.906;6.952;2023-08-31T13:36:11;4.23;;;2.10;;
14754;SDS011;7469;50.906;6.952;2023-08-31T13:38:39;4.80;;;1.60;;
14754;SDS011;7469;50.906;6.952;2023-08-31T13:41:07;7.83;;;2.17;;
14754;SDS011;7469;50.906;6.952;2023-08-31T13:43:35;5.77;;;2.10;;
14754;SDS011;7469;50.906;6.952;2023-08-31T13:46:03;4.63;;;1.80;;
14754;SDS011;7469;50.906;6.952;2023-08-31T13:48:31;3.83;;;1.87;;
14754;SDS011;7469;50.906;6.952;2023-08-31T13:50:59;5.67;;;1.87;;
14754;SDS011;7469;50.906;6.952;2023-08-31T13:53:28;6.00;;;2.03;;
14754;SDS011;7469;50.906;6.952;2023-08-31T13:55:56;3.67;;;2.00;;
14754;SDS011;7469;50.906;6.952;2023-08-31T13:58:24;6.93;;;2.10;;
14754;SDS011;7469;50.906;6.952;2023-08-31T14:00:52;3.93;;;1.80;;
14754;SDS011;7469;50.906;6.952;2023-08-31T14:03:20;5.03;;;1.87;;
14754;SDS011;7469;50.906;6.952;2023-08-31T14:05:49;4.07;;;1.77;;
14754;SDS011;7469;50.906;6.952;2023-08-31T14:08:17;3.93;;;1.87;;
14754;SDS011;7469;50.906;6.952;2023-08-31T14:10:47;3.83;;;1.93;;
14754;SDS011;7469;50.906;6.952;2023-08-31T14:13:14;3.80;;;2.10;;
14754;SDS011;7469;50.906;6.952;2023-08-31T14:15:45;4.30;;;2.07;;
14754;SDS011;7469;50.906;6.952;2023-08-31T14:18:14;4.97;;;2.10;;
14754;SDS011;7469;50.906;6.952;2023-08-31T14:20:42;4.53;;;1.80;;
14754;SDS011;7469;50.906;6.952;2023-08-31T14:23:10;4.33;;;1.63;;
14754;SDS011;7469;50.906;6.952;2023-08-31T14:25:38;4.87;;;1.93;;
14754;SDS011;7469;50.906;6.952;2023-08-31T14:28:08;5.27;;;1.80;;
14754;SDS011;7469;50.906;6.952;2023-08-31T14:30:36;4.30;;;1.70;;
14754;SDS011;7469;50.906;6.952;2023-08-31T14:33:04;3.83;;;1.70;;
14754;SDS011;7469;50.906;6.952;2023-08-31T14:35:35;6.63;;;1.80;;
14754;SDS011;7469;50.906;6.952;2023-08-31T14:38:04;2.77;;;1.60;;
14754;SDS011;7469;50.906;6.952;2023-08-31T14:40:32;4.07;;;1.77;;
14754;SDS011;7469;50.906;6.952;2023-08-31T14:43:03;3.87;;;1.70;;
14754;SDS011;7469;50.906;6.952;2023-08-31T14:45:33;6.07;;;1.73;;
14754;SDS011;7469;50.906;6.952;2023-08-31T14:48:01;4.00;;;1.97;;
14754;SDS011;7469;50.906;6.952;2023-08-31T14:50:29;4.20;;;1.80;;
14754;SDS011;7469;50.906;6.952;2023-08-31T14:52:57;4.07;;;1.90;;
14754;SDS011;7469;50.906;6.952;2023-08-31T14:55:25;3.67;;;1.93;;
14754;SDS011;7469;50.906;6.952;2023-08-31T14:57:53;8.40;;;1.83;;
14754;SDS011;7469;50.906;6.952;2023-08-31T15:00:21;2.90;;;1.90;;
14754;SDS011;7469;50.906;6.952;2023-08-31T15:02:50;5.47;;;1.93;;
14754;SDS011;7469;50.906;6.952;2023-08-31T15:05:18;3.37;;;1.70;;
14754;SDS011;7469;50.906;6.952;2023-08-31T15:07:46;4.00;;;1.60;;
14754;SDS011;7469;50.906;6.952;2023-08-31T15:10:14;1.67;;;1.50;;
14754;SDS011;7469;50.906;6.952;2023-08-31T15:12:43;3.30;;;1.70;;